sensor_id;sensor_type;location;lat;lon;timestamp;P1;durP1;ratioP1;P2;durP2;ratioP2
51292;SDS011;37377;45.186;9.778;2024-01-30T07:48:00;91.2;;;56.9;;
51292;SDS011;37377;45.186;9.778;2024-01-30T07:49:00;100.0;;;61.5;;
51292;SDS011;37377;45.186;9.778;2024-01-30T07:50:00;100.0;;;61.5;;
51292;SDS011;37377;45.186;9.778;2024-01-30T07:51:00;100.0;;;61.5;;
51292;SDS011;37377;45.186;9.778;2024-01-30T07:52:00;101.1;;;63.3;;
51292;SDS011;37377;45.186;9.778;2024-01-30T07:53:01;101.1;;;63.3;;
51292;SDS011;37377;45.186;9.778;2024-01-30T07:54:00;101.1;;;63.3;;
51292;SDS011;37377;45.186;9.778;2024-01-30T07:55:00;99.0;;;59.9;;
51292;SDS011;37377;45.186;9.778;2024-01-30T07:56:00;99.0;;;59.9;;
51292;SDS011;37377;45.186;9.778;2024-01-30T07:57:00;99.0;;;59.9;;
51292;SDS011;37377;45.186;9.778;2024-01-30T07:58:00;96.7;;;59.3;;
51292;SDS011;37377;45.186;9.778;2024-01-30T07:59:00;96.7;;;59.3;;
51292;SDS011;37377;45.186;9.778;2024-01-30T08:00:01;96.7;;;59.3;;
51292;SDS011;37377;45.186;9.778;2024-01-30T08:01:01;105.5;;;59.3;;
51292;SDS011;37377;45.186;9.778;2024-01-30T08:02:00;105.5;;;59.3;;
51292;SDS011;37377;45.186;9.778;2024-01-30T08:03:00;105.5;;;59.3;;
51292;SDS011;37377;45.186;9.778;2024-01-30T08:04:00;44.4;;;18.6;;
51292;SDS011;37377;45.186;9.778;2024-01-30T08:05:00;44.4;;;18.6;;
51292;SDS011;37377;45.186;9.778;2024-01-30T08:06:00;44.4;;;18.6;;
51292;SDS011;37377;45.186;9.778;2024-01-30T08:07:00;81.3;;;50.2;;
51292;SDS011;37377;45.186;9.778;2024-01-30T08:08:00;81.3;;;50.2;;
51292;SDS011;37377;45.186;9.778;2024-01-30T08:09:00;81.3;;;50.2;;
51292;SDS011;37377;45.186;9.778;2024-01-30T08:10:00;107.1;;;52.4;;
51292;SDS011;37377;45.186;9.778;2024-01-30T08:11:00;107.1;;;52.4;;
51292;SDS011;37377;45.186;9.778;2024-01-30T08:12:00;107.1;;;52.4;;
51292;SDS011;37377;45.186;9.778;2024-01-30T08:13:00;59.8;;;19.4;;
51292;SDS011;37377;45.186;9.778;2024-01-30T08:14:00;59.8;;;19.4;;
51292;SDS011;37377;45.186;9.778;2024-01-30T08:15:00;59.8;;;19.4;;
51292;SDS011;37377;45.186;9.778;2024-01-30T08:16:00;79.5;;;50.8;;
51292;SDS011;37377;45.186;9.778;2024-01-30T08:17:00;79.5;;;50.8;;
51292;SDS011;37377;45.186;9.778;2024-01-30T08:18:00;79.5;;;50.8;;
51292;SDS011;37377;45.186;9.778;2024-01-30T08:19:01;83.2;;;52.2;;
51292;SDS011;37377;45.186;9.778;2024-01-30T08:20:00;83.2;;;52.2;;
51292;SDS011;37377;45.186;9.778;2024-01-30T08:21:00;83.2;;;52.2;;
51292;SDS011;37377;45.186;9.778;2024-01-30T08:22:00;84.6;;;52.0;;
51292;SDS011;37377;45.186;9.778;2024-01-30T08:23:00;84.6;;;52.0;;
51292;SDS011;37377;45.186;9.778;2024-01-30T08:24:00;84.6;;;52.0;;
51292;SDS011;37377;45.186;9.778;2024-01-30T08:25:00;82.9;;;52.6;;
51292;SDS011;37377;45.186;9.778;2024-01-30T08:26:00;82.9;;;52.6;;
51292;SDS011;37377;45.186;9.778;2024-01-30T08:27:02;82.9;;;52.6;;
51292;SDS011;37377;45.186;9.778;2024-01-30T08:28:00;79.4;;;52.1;;
51292;SDS011;37377;45.186;9.778;2024-01-30T08:29:01;79.4;;;52.1;;
51292;SDS011;37377;45.186;9.778;2024-01-30T08:30:00;79.4;;;52.1;;
51292;SDS011;37377;45.186;9.778;2024-01-30T08:31:00;70.2;;;47.7;;
51292;SDS011;37377;45.186;9.778;2024-01-30T08:32:00;70.2;;;47.7;;
51292;SDS011;37377;45.186;9.778;2024-01-30T08:33:00;70.2;;;47.7;;
51292;SDS011;37377;45.186;9.778;2024-01-30T08:34:00;76.6;;;50.3;;
51292;SDS011;37377;45.186;9.778;2024-01-30T08:35:03;76.6;;;50.3;;
51292;SDS011;37377;45.186;9.778;2024-01-30T08:36:00;76.6;;;50.3;;
51292;SDS011;37377;45.186;9.778;2024-01-30T08:37:00;73.4;;;50.4;;
51292;SDS011;37377;45.186;9.778;2024-01-30T08:38:00;73.4;;;50.4;;
51292;SDS011;37377;45.186;9.778;2024-01-30T08:39:05;73.4;;;50.4;;
51292;SDS011;37377;45.186;9.778;2024-01-30T08:40:02;75.9;;;49.2;;
51292;SDS011;37377;45.186;9.778;2024-01-30T08:41:00;75.9;;;49.2;;
51292;SDS011;37377;45.186;9.778;2024-01-30T08:42:00;75.9;;;49.2;;
51292;SDS011;37377;45.186;9.778;2024-01-30T08:43:00;42.6;;;19.1;;
51292;SDS011;37377;45.186;9.778;2024-01-30T08:44:00;42.6;;;19.1;;
51292;SDS011;37377;45.186;9.778;2024-01-30T08:45:00;42.6;;;19.1;;
51292;SDS011;37377;45.186;9.778;2024-01-30T08:46:01;70.0;;;48.0;;
51292;SDS011;37377;45.186;9.778;2024-01-30T08:47:01;70.0;;;48.0;;
51292;SDS011;37377;45.186;9.778;2024-01-30T08:48:00;70.0;;;48.0;;
51292;SDS011;37377;45.186;9.778;2024-01-30T08:49:00;70.6;;;49.9;;
51292;SDS011;37377;45.186;9.778;2024-01-30T08:50:01;70.6;;;49.9;;
51292;SDS011;37377;45.186;9.778;2024-01-30T08:51:00;70.6;;;49.9;;
51292;SDS011;37377;45.186;9.778;2024-01-30T08:52:00;88.4;;;56.2;;
51292;SDS011;37377;45.186;9.778;2024-01-30T08:53:00;88.4;;;56.2;;
51292;SDS011;37377;45.186;9.778;2024-01-30T08:54:01;88.4;;;56.2;;
51292;SDS011;37377;45.186;9.778;2024-01-30T08:55:00;84.9;;;55.3;;
51292;SDS011;37377;45.186;9.778;2024-01-30T08:56:00;84.9;;;55.3;;
51292;SDS011;37377;45.186;9.778;2024-01-30T08:57:00;84.9;;;55.3;;
51292;SDS011;37377;45.186;9.778;2024-01-30T08:58:00;79.0;;;50.9;;
51292;SDS011;37377;45.186;9.778;2024-01-30T08:59:00;79.0;;;50.9;;
51292;SDS011;37377;45.186;9.778;2024-01-30T09:00:03;79.0;;;50.9;;
51292;SDS011;37377;45.186;9.778;2024-01-30T09:01:00;76.7;;;50.7;;
51292;SDS011;37377;45.186;9.778;2024-01-30T09:02:13;76.7;;;50.7;;
51292;SDS011;37377;45.186;9.778;2024-01-30T09:03:00;76.7;;;50.7;;
51292;SDS011;37377;45.186;9.778;2024-01-30T09:04:00;77.4;;;51.7;;
51292;SDS011;37377;45.186;9.778;2024-01-30T09:05:00;77.4;;;51.7;;
51292;SDS011;37377;45.186;9.778;2024-01-30T09:06:00;77.4;;;51.7;;
51292;SDS011;37377;45.186;9.778;2024-01-30T09:07:00;82.2;;;49.5;;
51292;SDS011;37377;45.186;9.778;2024-01-30T09:08:00;82.2;;;49.5;;
51292;SDS011;37377;45.186;9.778;2024-01-30T09:09:00;82.2;;;49.5;;
51292;SDS011;37377;45.186;9.778;2024-01-30T09:10:00;71.4;;;50.0;;
51292;SDS011;37377;45.186;9.778;2024-01-30T09:11:02;71.4;;;50.0;;
51292;SDS011;37377;45.186;9.778;2024-01-30T09:12:06;71.4;;;50.0;;
51292;SDS011;37377;45.186;9.778;2024-01-30T09:13:00;78.7;;;50.1;;
51292;SDS011;37377;45.186;9.778;2024-01-30T09:14:00;78.7;;;50.1;;
51292;SDS011;37377;45.186;9.778;2024-01-30T09:15:00;78.7;;;50.1;;
51292;SDS011;37377;45.186;9.778;2024-01-30T09:16:00;69.2;;;48.8;;
51292;SDS011;37377;45.186;9.778;2024-01-30T09:17:00;69.2;;;48.8;;
51292;SDS011;37377;45.186;9.778;2024-01-30T09:18:00;69.2;;;48.8;;
51292;SDS011;37377;45.186;9.778;2024-01-30T09:19:01;71.4;;;50.8;;
51292;SDS011;37377;45.186;9.778;2024-01-30T09:20:00;71.4;;;50.8;;
51292;SDS011;37377;45.186;9.778;2024-01-30T09:21:01;71.4;;;50.8;;
51292;SDS011;37377;45.186;9.778;2024-01-30T09:22:00;41.6;;;18.6;;
51292;SDS011;37377;45.186;9.778;2024-01-30T09:23:00;41.6;;;18.6;;
51292;SDS011;37377;45.186;9.778;2024-01-30T09:24:03;41.6;;;18.6;;
51292;SDS011;37377;45.186;9.778;2024-01-30T09:25:00;76.7;;;51.7;;
51292;SDS011;37377;45.186;9.778;2024-01-30T09:26:00;76.7;;;51.7;;
51292;SDS011;37377;45.186;9.778;2024-01-30T09:27:00;76.7;;;51.7;;
51292;SDS011;37377;45.186;9.778;2024-01-30T09:28:00;72.2;;;49.2;;
51292;SDS011;37377;45.186;9.778;2024-01-30T09:29:00;72.2;;;49.2;;
51292;SDS011;37377;45.186;9.778;2024-01-30T09:30:00;72.2;;;49.2;;
51292;SDS011;37377;45.186;9.778;2024-01-30T09:31:00;71.8;;;50.2;;
51292;SDS011;37377;45.186;9.778;2024-01-30T09:32:00;71.8;;;50.2;;
51292;SDS011;37377;45.186;9.778;2024-01-30T09:33:00;71.8;;;50.2;;
51292;SDS011;37377;45.186;9.778;2024-01-30T09:34:00;71.8;;;52.7;;
51292;SDS011;37377;45.186;9.778;2024-01-30T09:35:00;71.8;;;52.7;;
51292;SDS011;37377;45.186;9.778;2024-01-30T09:36:00;71.8;;;52.7;;
51292;SDS011;37377;45.186;9.778;2024-01-30T09:37:00;76.0;;;52.6;;
51292;SDS011;37377;45.186;9.778;2024-01-30T09:38:00;76.0;;;52.6;;
51292;SDS011;37377;45.186;9.778;2024-01-30T09:39:00;76.0;;;52.6;;
51292;SDS011;37377;45.186;9.778;2024-01-30T09:40:00;75.3;;;49.2;;
51292;SDS011;37377;45.186;9.778;2024-01-30T09:41:05;75.3;;;49.2;;
51292;SDS011;37377;45.186;9.778;2024-01-30T09:42:23;75.3;;;49.2;;
51292;SDS011;37377;45.186;9.778;2024-01-30T09:43:00;73.5;;;49.9;;
51292;SDS011;37377;45.186;9.778;2024-01-30T09:44:02;73.5;;;49.9;;
51292;SDS011;37377;45.186;9.778;2024-01-30T09:45:01;73.5;;;49.9;;
51292;SDS011;37377;45.186;9.778;2024-01-30T09:46:03;66.2;;;47.9;;
51292;SDS011;37377;45.186;9.778;2024-01-30T09:47:03;66.2;;;47.9;;
51292;SDS011;37377;45.186;9.778;2024-01-30T09:48:00;66.2;;;47.9;;
51292;SDS011;37377;45.186;9.778;2024-01-30T09:49:02;72.8;;;49.0;;
51292;SDS011;37377;45.186;9.778;2024-01-30T09:50:02;72.8;;;49.0;;
51292;SDS011;37377;45.186;9.778;2024-01-30T09:51:00;72.8;;;49.0;;
51292;SDS011;37377;45.186;9.778;2024-01-30T09:52:01;70.1;;;49.1;;
51292;SDS011;37377;45.186;9.778;2024-01-30T09:53:00;70.1;;;49.1;;
51292;SDS011;37377;45.186;9.778;2024-01-30T09:54:01;70.1;;;49.1;;
51292;SDS011;37377;45.186;9.778;2024-01-30T09:55:01;70.9;;;48.8;;
51292;SDS011;37377;45.186;9.778;2024-01-30T09:56:01;70.9;;;48.8;;
51292;SDS011;37377;45.186;9.778;2024-01-30T09:57:00;70.9;;;48.8;;
51292;SDS011;37377;45.186;9.778;2024-01-30T09:58:00;66.0;;;48.3;;
51292;SDS011;37377;45.186;9.778;2024-01-30T09:59:00;66.0;;;48.3;;
51292;SDS011;37377;45.186;9.778;2024-01-30T10:00:00;66.0;;;48.3;;
51292;SDS011;37377;45.186;9.778;2024-01-30T10:01:02;64.9;;;46.8;;
51292;SDS011;37377;45.186;9.778;2024-01-30T10:02:00;64.9;;;46.8;;
51292;SDS011;37377;45.186;9.778;2024-01-30T10:03:00;64.9;;;46.8;;
51292;SDS011;37377;45.186;9.778;2024-01-30T10:04:01;65.9;;;48.3;;
51292;SDS011;37377;45.186;9.778;2024-01-30T10:05:01;65.9;;;48.3;;
51292;SDS011;37377;45.186;9.778;2024-01-30T10:06:01;65.9;;;48.3;;
51292;SDS011;37377;45.186;9.778;2024-01-30T10:07:02;65.0;;;46.7;;
51292;SDS011;37377;45.186;9.778;2024-01-30T10:08:00;65.0;;;46.7;;
51292;SDS011;37377;45.186;9.778;2024-01-30T10:09:00;65.0;;;46.7;;
51292;SDS011;37377;45.186;9.778;2024-01-30T10:10:00;73.7;;;50.1;;
51292;SDS011;37377;45.186;9.778;2024-01-30T10:11:01;73.7;;;50.1;;
51292;SDS011;37377;45.186;9.778;2024-01-30T10:12:01;73.7;;;50.1;;
51292;SDS011;37377;45.186;9.778;2024-01-30T10:13:04;66.9;;;50.1;;
51292;SDS011;37377;45.186;9.778;2024-01-30T10:14:00;66.9;;;50.1;;
51292;SDS011;37377;45.186;9.778;2024-01-30T10:15:00;66.9;;;50.1;;
51292;SDS011;37377;45.186;9.778;2024-01-30T10:16:03;68.9;;;52.0;;
51292;SDS011;37377;45.186;9.778;2024-01-30T10:17:01;68.9;;;52.0;;
51292;SDS011;37377;45.186;9.778;2024-01-30T10:18:00;68.9;;;52.0;;
51292;SDS011;37377;45.186;9.778;2024-01-30T10:19:00;74.4;;;52.7;;
51292;SDS011;37377;45.186;9.778;2024-01-30T10:20:03;74.4;;;52.7;;
51292;SDS011;37377;45.186;9.778;2024-01-30T10:21:01;74.4;;;52.7;;
51292;SDS011;37377;45.186;9.778;2024-01-30T10:22:00;72.1;;;52.5;;
51292;SDS011;37377;45.186;9.778;2024-01-30T10:23:00;72.1;;;52.5;;
51292;SDS011;37377;45.186;9.778;2024-01-30T10:24:00;72.1;;;52.5;;
51292;SDS011;37377;45.186;9.778;2024-01-30T10:26:00;68.9;;;51.6;;
51292;SDS011;37377;45.186;9.778;2024-01-30T10:27:00;68.9;;;51.6;;
51292;SDS011;37377;45.186;9.778;2024-01-30T10:28:00;72.4;;;53.8;;
51292;SDS011;37377;45.186;9.778;2024-01-30T10:29:00;72.4;;;53.8;;
51292;SDS011;37377;45.186;9.778;2024-01-30T10:30:00;72.4;;;53.8;;
51292;SDS011;37377;45.186;9.778;2024-01-30T10:31:05;92.3;;;65.2;;
51292;SDS011;37377;45.186;9.778;2024-01-30T10:32:01;92.3;;;65.2;;
51292;SDS011;37377;45.186;9.778;2024-01-30T10:33:00;92.3;;;65.2;;
51292;SDS011;37377;45.186;9.778;2024-01-30T10:34:10;78.7;;;55.3;;
51292;SDS011;37377;45.186;9.778;2024-01-30T10:35:00;78.7;;;55.3;;
51292;SDS011;37377;45.186;9.778;2024-01-30T10:36:01;78.7;;;55.3;;
51292;SDS011;37377;45.186;9.778;2024-01-30T10:37:07;82.1;;;57.1;;
51292;SDS011;37377;45.186;9.778;2024-01-30T10:38:00;82.1;;;57.1;;
51292;SDS011;37377;45.186;9.778;2024-01-30T10:39:00;82.1;;;57.1;;
51292;SDS011;37377;45.186;9.778;2024-01-30T10:40:06;80.2;;;56.6;;
51292;SDS011;37377;45.186;9.778;2024-01-30T10:41:04;80.2;;;56.6;;
51292;SDS011;37377;45.186;9.778;2024-01-30T10:42:04;80.2;;;56.6;;
51292;SDS011;37377;45.186;9.778;2024-01-30T10:43:05;80.0;;;57.5;;
51292;SDS011;37377;45.186;9.778;2024-01-30T10:44:08;80.0;;;57.5;;
51292;SDS011;37377;45.186;9.778;2024-01-30T10:45:07;80.0;;;57.5;;
51292;SDS011;37377;45.186;9.778;2024-01-30T10:46:31;81.2;;;57.7;;
51292;SDS011;37377;45.186;9.778;2024-01-30T10:47:03;81.2;;;57.7;;
51292;SDS011;37377;45.186;9.778;2024-01-30T10:48:03;81.2;;;57.7;;
51292;SDS011;37377;45.186;9.778;2024-01-30T10:49:01;78.5;;;57.3;;
51292;SDS011;37377;45.186;9.778;2024-01-30T10:50:01;78.5;;;57.3;;
51292;SDS011;37377;45.186;9.778;2024-01-30T10:51:02;78.5;;;57.3;;
51292;SDS011;37377;45.186;9.778;2024-01-30T10:52:01;80.7;;;59.1;;
51292;SDS011;37377;45.186;9.778;2024-01-30T10:53:02;80.7;;;59.1;;
51292;SDS011;37377;45.186;9.778;2024-01-30T10:54:01;80.7;;;59.1;;
51292;SDS011;37377;45.186;9.778;2024-01-30T10:55:00;78.7;;;58.1;;
51292;SDS011;37377;45.186;9.778;2024-01-30T10:56:01;78.7;;;58.1;;
51292;SDS011;37377;45.186;9.778;2024-01-30T10:57:02;78.7;;;58.1;;
51292;SDS011;37377;45.186;9.778;2024-01-30T10:58:00;77.4;;;57.0;;
51292;SDS011;37377;45.186;9.778;2024-01-30T10:59:00;77.4;;;57.0;;
51292;SDS011;37377;45.186;9.778;2024-01-30T11:00:06;77.4;;;57.0;;
51292;SDS011;37377;45.186;9.778;2024-01-30T11:01:01;78.9;;;57.9;;
51292;SDS011;37377;45.186;9.778;2024-01-30T11:02:00;78.9;;;57.9;;
51292;SDS011;37377;45.186;9.778;2024-01-30T11:03:00;78.9;;;57.9;;
51292;SDS011;37377;45.186;9.778;2024-01-30T11:04:00;75.1;;;55.2;;
51292;SDS011;37377;45.186;9.778;2024-01-30T11:05:01;75.1;;;55.2;;
51292;SDS011;37377;45.186;9.778;2024-01-30T11:06:02;75.1;;;55.2;;
51292;SDS011;37377;45.186;9.778;2024-01-30T11:07:02;84.1;;;59.1;;
51292;SDS011;37377;45.186;9.778;2024-01-30T11:08:11;84.1;;;59.1;;
51292;SDS011;37377;45.186;9.778;2024-01-30T11:09:02;84.1;;;59.1;;
51292;SDS011;37377;45.186;9.778;2024-01-30T11:10:02;78.6;;;59.4;;
51292;SDS011;37377;45.186;9.778;2024-01-30T11:11:00;78.6;;;59.4;;
51292;SDS011;37377;45.186;9.778;2024-01-30T11:12:01;78.6;;;59.4;;
51292;SDS011;37377;45.186;9.778;2024-01-30T11:13:10;80.8;;;58.3;;
51292;SDS011;37377;45.186;9.778;2024-01-30T11:14:01;80.8;;;58.3;;
51292;SDS011;37377;45.186;9.778;2024-01-30T11:15:08;80.8;;;58.3;;
51292;SDS011;37377;45.186;9.778;2024-01-30T11:16:01;78.8;;;58.4;;
51292;SDS011;37377;45.186;9.778;2024-01-30T11:17:00;78.8;;;58.4;;
51292;SDS011;37377;45.186;9.778;2024-01-30T11:18:00;78.8;;;58.4;;
51292;SDS011;37377;45.186;9.778;2024-01-30T11:19:02;83.9;;;60.6;;
51292;SDS011;37377;45.186;9.778;2024-01-30T11:20:00;83.9;;;60.6;;
51292;SDS011;37377;45.186;9.778;2024-01-30T11:21:04;83.9;;;60.6;;
51292;SDS011;37377;45.186;9.778;2024-01-30T11:22:00;79.9;;;60.0;;
51292;SDS011;37377;45.186;9.778;2024-01-30T11:24:02;79.9;;;60.0;;
51292;SDS011;37377;45.186;9.778;2024-01-30T11:25:03;81.0;;;57.7;;
51292;SDS011;37377;45.186;9.778;2024-01-30T11:26:00;81.0;;;57.7;;
51292;SDS011;37377;45.186;9.778;2024-01-30T11:27:01;81.0;;;57.7;;
51292;SDS011;37377;45.186;9.778;2024-01-30T11:28:00;90.9;;;62.8;;
51292;SDS011;37377;45.186;9.778;2024-01-30T11:29:03;90.9;;;62.8;;
51292;SDS011;37377;45.186;9.778;2024-01-30T11:30:02;90.9;;;62.8;;
51292;SDS011;37377;45.186;9.778;2024-01-30T11:31:04;91.8;;;63.3;;
51292;SDS011;37377;45.186;9.778;2024-01-30T11:32:00;91.8;;;63.3;;
51292;SDS011;37377;45.186;9.778;2024-01-30T11:33:05;91.8;;;63.3;;
51292;SDS011;37377;45.186;9.778;2024-01-30T11:34:00;94.2;;;64.4;;
51292;SDS011;37377;45.186;9.778;2024-01-30T11:35:01;94.2;;;64.4;;
51292;SDS011;37377;45.186;9.778;2024-01-30T11:36:01;94.2;;;64.4;;
51292;SDS011;37377;45.186;9.778;2024-01-30T11:37:04;87.3;;;60.6;;
51292;SDS011;37377;45.186;9.778;2024-01-30T11:38:01;87.3;;;60.6;;
51292;SDS011;37377;45.186;9.778;2024-01-30T11:39:00;87.3;;;60.6;;
51292;SDS011;37377;45.186;9.778;2024-01-30T11:40:00;85.5;;;61.4;;
51292;SDS011;37377;45.186;9.778;2024-01-30T11:41:00;85.5;;;61.4;;
51292;SDS011;37377;45.186;9.778;2024-01-30T11:42:01;85.5;;;61.4;;
51292;SDS011;37377;45.186;9.778;2024-01-30T11:43:02;83.0;;;58.2;;
51292;SDS011;37377;45.186;9.778;2024-01-30T11:44:03;83.0;;;58.2;;
51292;SDS011;37377;45.186;9.778;2024-01-30T11:45:02;83.0;;;58.2;;
51292;SDS011;37377;45.186;9.778;2024-01-30T11:46:00;83.4;;;60.3;;
51292;SDS011;37377;45.186;9.778;2024-01-30T11:47:00;83.4;;;60.3;;
51292;SDS011;37377;45.186;9.778;2024-01-30T11:48:03;83.4;;;60.3;;
51292;SDS011;37377;45.186;9.778;2024-01-30T11:49:00;93.4;;;60.7;;
51292;SDS011;37377;45.186;9.778;2024-01-30T11:50:01;93.4;;;60.7;;
51292;SDS011;37377;45.186;9.778;2024-01-30T11:51:00;93.4;;;60.7;;
51292;SDS011;37377;45.186;9.778;2024-01-30T11:52:00;87.0;;;61.0;;
51292;SDS011;37377;45.186;9.778;2024-01-30T11:53:00;87.0;;;61.0;;
51292;SDS011;37377;45.186;9.778;2024-01-30T11:54:00;87.0;;;61.0;;
51292;SDS011;37377;45.186;9.778;2024-01-30T11:55:00;82.9;;;60.2;;
51292;SDS011;37377;45.186;9.778;2024-01-30T11:56:00;82.9;;;60.2;;
51292;SDS011;37377;45.186;9.778;2024-01-30T11:57:00;82.9;;;60.2;;
51292;SDS011;37377;45.186;9.778;2024-01-30T11:58:00;89.0;;;62.8;;
51292;SDS011;37377;45.186;9.778;2024-01-30T11:59:01;89.0;;;62.8;;
51292;SDS011;37377;45.186;9.778;2024-01-30T12:00:00;89.0;;;62.8;;
51292;SDS011;37377;45.186;9.778;2024-01-30T12:01:00;98.6;;;63.8;;
51292;SDS011;37377;45.186;9.778;2024-01-30T12:02:01;98.6;;;63.8;;
51292;SDS011;37377;45.186;9.778;2024-01-30T12:03:00;98.6;;;63.8;;
51292;SDS011;37377;45.186;9.778;2024-01-30T12:04:00;86.5;;;60.9;;
51292;SDS011;37377;45.186;9.778;2024-01-30T12:05:04;86.5;;;60.9;;
51292;SDS011;37377;45.186;9.778;2024-01-30T12:06:02;86.5;;;60.9;;
51292;SDS011;37377;45.186;9.778;2024-01-30T12:07:04;92.6;;;63.2;;
51292;SDS011;37377;45.186;9.778;2024-01-30T12:08:02;92.6;;;63.2;;
51292;SDS011;37377;45.186;9.778;2024-01-30T12:09:02;92.6;;;63.2;;
51292;SDS011;37377;45.186;9.778;2024-01-30T12:10:01;91.6;;;64.6;;
51292;SDS011;37377;45.186;9.778;2024-01-30T12:11:02;91.6;;;64.6;;
51292;SDS011;37377;45.186;9.778;2024-01-30T12:12:00;91.6;;;64.6;;
51292;SDS011;37377;45.186;9.778;2024-01-30T12:13:01;95.5;;;65.4;;
51292;SDS011;37377;45.186;9.778;2024-01-30T12:14:00;95.5;;;65.4;;
51292;SDS011;37377;45.186;9.778;2024-01-30T12:15:00;95.5;;;65.4;;
51292;SDS011;37377;45.186;9.778;2024-01-30T12:16:01;87.4;;;62.3;;
51292;SDS011;37377;45.186;9.778;2024-01-30T12:19:02;91.7;;;65.3;;
51292;SDS011;37377;45.186;9.778;2024-01-30T12:23:00;104.0;;;69.4;;
51292;SDS011;37377;45.186;9.778;2024-01-30T12:24:00;104.0;;;69.4;;
51292;SDS011;37377;45.186;9.778;2024-01-30T12:25:00;104.5;;;69.1;;
51292;SDS011;37377;45.186;9.778;2024-01-30T12:26:02;104.5;;;69.1;;
51292;SDS011;37377;45.186;9.778;2024-01-30T12:27:00;104.5;;;69.1;;
51292;SDS011;37377;45.186;9.778;2024-01-30T12:28:00;104.5;;;69.1;;
51292;SDS011;37377;45.186;9.778;2024-01-30T13:17:00;128.6;;;84.7;;
51292;SDS011;37377;45.186;9.778;2024-01-30T13:18:00;128.6;;;84.7;;
51292;SDS011;37377;45.186;9.778;2024-01-30T13:19:02;123.5;;;84.4;;
51292;SDS011;37377;45.186;9.778;2024-01-30T13:20:11;123.5;;;84.4;;
51292;SDS011;37377;45.186;9.778;2024-01-30T13:21:00;123.5;;;84.4;;
51292;SDS011;37377;45.186;9.778;2024-01-30T13:22:00;123.5;;;84.4;;
51292;SDS011;37377;45.186;9.778;2024-01-30T13:23:00;123.5;;;84.4;;
51292;SDS011;37377;45.186;9.778;2024-01-30T13:24:00;123.5;;;84.4;;
51292;SDS011;37377;45.186;9.778;2024-01-30T13:26:00;127.7;;;83.2;;
51292;SDS011;37377;45.186;9.778;2024-01-30T13:28:01;128.9;;;85.7;;
51292;SDS011;37377;45.186;9.778;2024-01-30T13:29:00;128.9;;;85.7;;
51292;SDS011;37377;45.186;9.778;2024-01-30T13:30:00;128.9;;;85.7;;
51292;SDS011;37377;45.186;9.778;2024-01-30T13:31:00;128.9;;;85.7;;
51292;SDS011;37377;45.186;9.778;2024-01-30T13:32:00;116.9;;;83.5;;
51292;SDS011;37377;45.186;9.778;2024-01-30T13:34:01;120.0;;;84.2;;
51292;SDS011;37377;45.186;9.778;2024-01-30T13:35:00;120.0;;;84.2;;
51292;SDS011;37377;45.186;9.778;2024-01-30T13:36:00;120.0;;;84.2;;
51292;SDS011;37377;45.186;9.778;2024-01-30T13:37:00;126.5;;;88.7;;
51292;SDS011;37377;45.186;9.778;2024-01-30T13:38:00;126.5;;;88.7;;
51292;SDS011;37377;45.186;9.778;2024-01-30T13:39:00;126.5;;;88.7;;
51292;SDS011;37377;45.186;9.778;2024-01-30T13:40:06;126.5;;;88.7;;
51292;SDS011;37377;45.186;9.778;2024-01-30T13:41:01;126.5;;;88.7;;
51292;SDS011;37377;45.186;9.778;2024-01-30T13:42:00;126.5;;;88.7;;
51292;SDS011;37377;45.186;9.778;2024-01-30T13:43:00;126.6;;;87.8;;
51292;SDS011;37377;45.186;9.778;2024-01-30T13:44:03;126.6;;;87.8;;
51292;SDS011;37377;45.186;9.778;2024-01-30T13:45:00;126.6;;;87.8;;
51292;SDS011;37377;45.186;9.778;2024-01-30T13:46:00;127.9;;;87.6;;
51292;SDS011;37377;45.186;9.778;2024-01-30T13:47:00;127.9;;;87.6;;
51292;SDS011;37377;45.186;9.778;2024-01-30T13:48:01;127.9;;;87.6;;
51292;SDS011;37377;45.186;9.778;2024-01-30T13:53:02;120.0;;;85.5;;
51292;SDS011;37377;45.186;9.778;2024-01-30T13:54:01;120.0;;;85.5;;
51292;SDS011;37377;45.186;9.778;2024-01-30T13:55:00;122.9;;;83.9;;
51292;SDS011;37377;45.186;9.778;2024-01-30T13:56:00;122.9;;;83.9;;
51292;SDS011;37377;45.186;9.778;2024-01-30T13:57:00;122.9;;;83.9;;
51292;SDS011;37377;45.186;9.778;2024-01-30T13:58:01;126.2;;;87.9;;
51292;SDS011;37377;45.186;9.778;2024-01-30T13:59:01;126.2;;;87.9;;
51292;SDS011;37377;45.186;9.778;2024-01-30T14:00:00;126.2;;;87.9;;
51292;SDS011;37377;45.186;9.778;2024-01-30T14:01:00;113.9;;;81.5;;
51292;SDS011;37377;45.186;9.778;2024-01-30T14:02:00;113.9;;;81.5;;
51292;SDS011;37377;45.186;9.778;2024-01-30T14:03:00;113.9;;;81.5;;
51292;SDS011;37377;45.186;9.778;2024-01-30T14:04:00;115.0;;;81.0;;
51292;SDS011;37377;45.186;9.778;2024-01-30T14:05:00;115.0;;;81.0;;
51292;SDS011;37377;45.186;9.778;2024-01-30T14:06:00;115.0;;;81.0;;
51292;SDS011;37377;45.186;9.778;2024-01-30T14:07:06;113.6;;;79.1;;
51292;SDS011;37377;45.186;9.778;2024-01-30T14:08:00;113.6;;;79.1;;
51292;SDS011;37377;45.186;9.778;2024-01-30T14:09:08;113.6;;;79.1;;
51292;SDS011;37377;45.186;9.778;2024-01-30T14:10:00;106.5;;;76.3;;
51292;SDS011;37377;45.186;9.778;2024-01-30T14:11:00;106.5;;;76.3;;
51292;SDS011;37377;45.186;9.778;2024-01-30T14:12:00;106.5;;;76.3;;
51292;SDS011;37377;45.186;9.778;2024-01-30T14:13:00;110.8;;;75.8;;
51292;SDS011;37377;45.186;9.778;2024-01-30T14:14:00;110.8;;;75.8;;
51292;SDS011;37377;45.186;9.778;2024-01-30T14:15:03;110.8;;;75.8;;
51292;SDS011;37377;45.186;9.778;2024-01-30T14:16:00;102.8;;;73.8;;
51292;SDS011;37377;45.186;9.778;2024-01-30T14:17:00;102.8;;;73.8;;
51292;SDS011;37377;45.186;9.778;2024-01-30T14:18:00;102.8;;;73.8;;
51292;SDS011;37377;45.186;9.778;2024-01-30T14:19:00;96.8;;;72.2;;
51292;SDS011;37377;45.186;9.778;2024-01-30T14:20:00;96.8;;;72.2;;
51292;SDS011;37377;45.186;9.778;2024-01-30T14:21:00;96.8;;;72.2;;
51292;SDS011;37377;45.186;9.778;2024-01-30T14:22:00;95.2;;;70.8;;
51292;SDS011;37377;45.186;9.778;2024-01-30T14:23:00;95.2;;;70.8;;
51292;SDS011;37377;45.186;9.778;2024-01-30T14:24:00;95.2;;;70.8;;
51292;SDS011;37377;45.186;9.778;2024-01-30T14:25:03;104.0;;;72.9;;
51292;SDS011;37377;45.186;9.778;2024-01-30T14:26:01;104.0;;;72.9;;
51292;SDS011;37377;45.186;9.778;2024-01-30T14:27:00;104.0;;;72.9;;
51292;SDS011;37377;45.186;9.778;2024-01-30T14:28:00;99.4;;;72.3;;
51292;SDS011;37377;45.186;9.778;2024-01-30T14:29:00;99.4;;;72.3;;
51292;SDS011;37377;45.186;9.778;2024-01-30T14:30:00;99.4;;;72.3;;
51292;SDS011;37377;45.186;9.778;2024-01-30T14:31:00;103.5;;;75.6;;
51292;SDS011;37377;45.186;9.778;2024-01-30T14:32:00;103.5;;;75.6;;
51292;SDS011;37377;45.186;9.778;2024-01-30T14:33:00;103.5;;;75.6;;
51292;SDS011;37377;45.186;9.778;2024-01-30T14:34:00;105.7;;;75.2;;
51292;SDS011;37377;45.186;9.778;2024-01-30T14:35:00;105.7;;;75.2;;
51292;SDS011;37377;45.186;9.778;2024-01-30T14:36:00;105.7;;;75.2;;
51292;SDS011;37377;45.186;9.778;2024-01-30T14:37:00;103.4;;;75.4;;
51292;SDS011;37377;45.186;9.778;2024-01-30T14:38:01;103.4;;;75.4;;
51292;SDS011;37377;45.186;9.778;2024-01-30T14:39:00;103.4;;;75.4;;
51292;SDS011;37377;45.186;9.778;2024-01-30T14:40:00;107.9;;;78.0;;
51292;SDS011;37377;45.186;9.778;2024-01-30T14:41:01;107.9;;;78.0;;
51292;SDS011;37377;45.186;9.778;2024-01-30T14:42:00;107.9;;;78.0;;
51292;SDS011;37377;45.186;9.778;2024-01-30T14:43:00;105.8;;;78.0;;
51292;SDS011;37377;45.186;9.778;2024-01-30T14:44:00;105.8;;;78.0;;
51292;SDS011;37377;45.186;9.778;2024-01-30T14:45:00;105.8;;;78.0;;
51292;SDS011;37377;45.186;9.778;2024-01-30T14:46:00;111.8;;;80.0;;
51292;SDS011;37377;45.186;9.778;2024-01-30T14:47:00;111.8;;;80.0;;
51292;SDS011;37377;45.186;9.778;2024-01-30T14:48:00;111.8;;;80.0;;
51292;SDS011;37377;45.186;9.778;2024-01-30T14:49:03;118.4;;;82.3;;